createdAt,value
2019-01-18T00:03:04.216Z,5.20
2019-01-18T00:07:57.174Z,4.70
2019-01-18T00:12:51.882Z,4.43
2019-01-18T00:17:44.930Z,4.27
2019-01-18T00:22:37.873Z,4.07
2019-01-18T00:27:30.784Z,3.67
2019-01-18T00:32:23.703Z,3.47
2019-01-18T00:37:16.667Z,3.40
2019-01-18T00:42:09.588Z,3.67
2019-01-18T00:47:02.490Z,3.53
2019-01-18T00:51:55.452Z,3.50
2019-01-18T00:56:48.373Z,3.50
2019-01-18T01:01:41.291Z,4.23
2019-01-18T01:06:34.263Z,4.07
2019-01-18T01:11:27.343Z,4.37
2019-01-18T01:16:20.357Z,3.93
2019-01-18T01:21:13.357Z,4.33
2019-01-18T01:26:07.348Z,5.03
2019-01-18T01:31:00.260Z,5.70
2019-01-18T01:35:53.165Z,6.37
2019-01-18T01:40:46.185Z,7.30
2019-01-18T01:45:39.112Z,7.20
2019-01-18T01:50:31.978Z,8.40
2019-01-18T01:55:24.888Z,8.90
2019-01-18T02:00:24.206Z,9.80
2019-01-18T02:05:17.124Z,9.13
2019-01-18T02:10:12.027Z,8.30
2019-01-18T02:15:07.436Z,8.07
2019-01-18T02:20:00.339Z,8.17
2019-01-18T02:24:53.326Z,8.27
2019-01-18T02:29:46.200Z,8.10
2019-01-18T02:34:39.064Z,8.60
2019-01-18T02:39:32.025Z,7.30
2019-01-18T02:44:24.962Z,7.60
2019-01-18T02:49:17.928Z,7.30
2019-01-18T02:54:10.884Z,7.53
2019-01-18T02:59:04.286Z,8.97
2019-01-18T03:03:57.146Z,8.67
2019-01-18T03:08:50.286Z,8.23
2019-01-18T03:13:43.180Z,8.40
2019-01-18T03:18:36.069Z,9.00
2019-01-18T03:23:28.935Z,9.40
2019-01-18T03:28:21.786Z,9.23
2019-01-18T03:33:14.660Z,9.50
2019-01-18T03:38:07.561Z,9.37
2019-01-18T03:43:00.438Z,8.83
2019-01-18T03:47:53.310Z,8.77
2019-01-18T03:52:46.114Z,9.80
2019-01-18T03:57:39.018Z,8.47
2019-01-18T04:02:31.900Z,8.33
2019-01-18T04:07:24.752Z,8.40
2019-01-18T04:12:18.525Z,8.90
2019-01-18T04:17:11.391Z,7.50
2019-01-18T04:22:04.473Z,7.67
2019-01-18T04:26:57.362Z,7.53
2019-01-18T04:31:50.228Z,7.63
2019-01-18T04:36:43.121Z,7.80
2019-01-18T04:41:36.025Z,8.37
2019-01-18T04:46:28.841Z,7.50
2019-01-18T04:51:21.725Z,7.40
2019-01-18T04:56:14.601Z,8.13
2019-01-18T05:01:07.556Z,7.17
2019-01-18T05:06:00.528Z,7.97
2019-01-18T05:10:53.504Z,7.97
2019-01-18T05:15:46.353Z,7.47
2019-01-18T05:20:39.256Z,8.80
2019-01-18T05:25:32.216Z,8.33
2019-01-18T05:30:27.634Z,8.93
2019-01-18T05:35:20.601Z,9.03
2019-01-18T05:40:15.245Z,8.70
2019-01-18T05:45:10.233Z,8.77
2019-01-18T05:50:04.921Z,8.83
2019-01-18T05:54:57.839Z,10.07
2019-01-18T05:59:50.824Z,9.93
2019-01-18T06:04:45.823Z,10.20
2019-01-18T06:09:38.663Z,9.80
2019-01-18T06:14:31.530Z,11.43
2019-01-18T06:19:24.425Z,10.97
2019-01-18T06:24:17.322Z,12.03
2019-01-18T06:29:10.179Z,11.20
2019-01-18T06:34:03.322Z,11.47
2019-01-18T06:38:56.280Z,10.40
2019-01-18T06:43:49.182Z,11.20
2019-01-18T06:48:42.833Z,11.67
2019-01-18T06:53:35.717Z,10.73
2019-01-18T06:58:28.745Z,12.63
2019-01-18T07:03:21.656Z,13.13
2019-01-18T07:08:14.562Z,13.43
2019-01-18T07:13:07.407Z,13.17
2019-01-18T07:18:00.276Z,12.70
2019-01-18T07:22:53.214Z,14.27
2019-01-18T07:27:46.100Z,13.57
2019-01-18T07:32:38.967Z,15.20
2019-01-18T07:37:31.860Z,13.53
2019-01-18T07:42:24.735Z,14.00
2019-01-18T07:47:17.662Z,14.13
2019-01-18T07:52:10.530Z,15.10
2019-01-18T07:57:03.391Z,14.80
2019-01-18T08:01:56.258Z,15.80
2019-01-18T08:06:49.242Z,18.07
2019-01-18T08:11:42.064Z,16.97
2019-01-18T08:16:34.960Z,16.60
2019-01-18T08:21:27.846Z,16.87
2019-01-18T08:26:20.704Z,15.07
2019-01-18T08:31:13.620Z,14.80
2019-01-18T08:36:06.735Z,18.37
2019-01-18T08:40:59.649Z,16.77
2019-01-18T08:46:05.982Z,16.17
2019-01-18T08:50:59.105Z,17.53
2019-01-18T08:55:51.948Z,18.50
2019-01-18T09:00:44.944Z,17.93
2019-01-18T09:05:37.884Z,17.37
2019-01-18T09:10:31.028Z,18.57
2019-01-18T09:15:23.930Z,18.60
2019-01-18T09:20:20.076Z,17.10
2019-01-18T09:25:13.019Z,15.30
2019-01-18T09:30:10.591Z,15.30
2019-01-18T09:35:05.139Z,16.57
2019-01-18T09:39:58.156Z,15.70
2019-01-18T09:44:51.119Z,15.10
2019-01-18T09:49:44.037Z,15.47
2019-01-18T09:54:36.940Z,14.73
2019-01-18T09:59:29.879Z,15.37
2019-01-18T10:04:22.707Z,13.03
2019-01-18T10:09:15.614Z,13.87
2019-01-18T10:14:08.589Z,13.30
2019-01-18T10:19:01.490Z,13.23
2019-01-18T10:23:54.310Z,14.40
2019-01-18T10:28:47.178Z,14.43
2019-01-18T10:33:40.094Z,15.37
2019-01-18T10:38:34.907Z,14.57
2019-01-18T10:43:27.770Z,14.83
2019-01-18T10:48:20.677Z,15.23
2019-01-18T10:53:13.573Z,17.10
2019-01-18T10:58:06.546Z,16.93
2019-01-18T11:02:59.418Z,16.33
2019-01-18T11:07:52.288Z,14.93
2019-01-18T11:12:45.254Z,15.50
2019-01-18T11:17:38.308Z,14.87
2019-01-18T11:22:31.265Z,15.27
2019-01-18T11:27:24.288Z,15.30
2019-01-18T11:32:17.256Z,15.40
2019-01-18T11:37:10.289Z,14.87
2019-01-18T11:42:05.279Z,15.00
2019-01-18T11:46:58.233Z,15.53
2019-01-18T11:51:51.323Z,14.00
2019-01-18T11:56:44.348Z,15.07
2019-01-18T12:01:37.236Z,13.93
2019-01-18T12:06:30.104Z,13.70
2019-01-18T12:11:23.038Z,13.37
2019-01-18T12:16:15.935Z,12.30
2019-01-18T12:21:09.406Z,12.13
2019-01-18T12:26:02.310Z,13.10
2019-01-18T12:30:55.356Z,14.13
2019-01-18T12:35:48.341Z,14.10
2019-01-18T12:40:41.197Z,13.33
2019-01-18T12:45:34.356Z,12.13
2019-01-18T12:50:34.066Z,9.90
2019-01-18T12:55:27.009Z,10.67
2019-01-18T13:00:21.428Z,10.43
2019-01-18T13:05:19.185Z,8.87
2019-01-18T13:10:12.491Z,8.70
2019-01-18T13:15:11.860Z,8.00
2019-01-18T13:20:06.119Z,9.77
2019-01-18T13:24:59.101Z,7.77
2019-01-18T13:29:52.012Z,8.00
2019-01-18T13:34:44.889Z,8.70
2019-01-18T13:39:37.792Z,9.27
2019-01-18T13:44:30.802Z,9.27
2019-01-18T13:49:23.723Z,8.63
2019-01-18T13:54:16.609Z,9.23
2019-01-18T13:59:09.499Z,8.83
2019-01-18T14:04:02.467Z,8.60
2019-01-18T14:08:55.930Z,8.40
2019-01-18T14:13:48.907Z,8.17
2019-01-18T14:18:41.903Z,6.63
2019-01-18T14:23:34.891Z,6.43
2019-01-18T14:28:27.801Z,6.73
2019-01-18T14:33:20.640Z,7.47
2019-01-18T14:38:13.746Z,7.23
2019-01-18T14:43:06.945Z,7.77
2019-01-18T14:47:59.807Z,7.30
2019-01-18T14:52:52.712Z,6.90
2019-01-18T14:57:45.692Z,6.70
2019-01-18T15:02:38.584Z,7.83
2019-01-18T15:07:31.548Z,8.10
2019-01-18T15:12:24.428Z,8.50
2019-01-18T15:17:17.319Z,9.07
2019-01-18T15:22:10.439Z,9.57
2019-01-18T15:27:03.592Z,9.20
2019-01-18T15:31:56.466Z,9.27
2019-01-18T15:36:49.388Z,8.97
2019-01-18T15:41:42.676Z,11.53
2019-01-18T15:46:35.643Z,12.77
2019-01-18T15:51:28.572Z,13.60
2019-01-18T15:56:21.430Z,14.73
2019-01-18T16:01:14.371Z,13.73
2019-01-18T16:06:07.438Z,14.47
2019-01-18T16:11:00.421Z,13.27
2019-01-18T16:16:28.167Z,13.00
2019-01-18T16:21:21.218Z,13.87
2019-01-18T16:26:14.171Z,14.00
2019-01-18T16:31:07.116Z,14.50
2019-01-18T16:36:00.074Z,13.60
2019-01-18T16:40:52.953Z,12.90
2019-01-18T16:45:45.863Z,14.03
2019-01-18T16:50:38.889Z,12.37
2019-01-18T16:55:32.390Z,12.97
2019-01-18T17:00:30.331Z,12.67
2019-01-18T17:05:25.786Z,11.77
2019-01-18T17:10:19.224Z,12.40
2019-01-18T17:15:14.719Z,12.40
2019-01-18T17:20:14.067Z,11.47
2019-01-18T17:25:07.153Z,12.43
2019-01-18T17:30:00.103Z,11.73
2019-01-18T17:34:54.463Z,11.60
2019-01-18T17:40:26.938Z,11.00
2019-01-18T17:46:38.340Z,11.47
2019-01-18T17:52:44.657Z,12.13
2019-01-18T17:58:47.092Z,11.23
2019-01-18T18:04:59.579Z,10.40
2019-01-18T18:11:06.907Z,11.30
2019-01-18T18:17:03.991Z,12.40
2019-01-18T18:23:09.477Z,11.20
2019-01-18T18:28:34.904Z,12.43
2019-01-18T18:34:43.845Z,11.30
2019-01-18T18:40:29.666Z,11.30
2019-01-18T18:46:17.647Z,11.77
2019-01-18T18:52:36.355Z,12.47
2019-01-18T18:58:20.296Z,12.77
2019-01-18T19:04:01.686Z,12.20
2019-01-18T19:09:55.815Z,12.30
2019-01-18T19:15:22.668Z,11.53
2019-01-18T19:21:10.051Z,12.43
2019-01-18T19:26:46.446Z,12.03
2019-01-18T19:32:41.514Z,10.87
2019-01-18T19:38:16.610Z,11.57
2019-01-18T19:44:07.061Z,11.00
2019-01-18T19:49:50.569Z,11.40
2019-01-18T19:55:45.723Z,11.93
2019-01-18T20:01:24.122Z,11.33
2019-01-18T20:06:56.244Z,11.20
2019-01-18T20:12:58.219Z,11.70
2019-01-18T20:18:54.059Z,11.67
2019-01-18T20:24:41.901Z,11.47
2019-01-18T20:30:23.794Z,11.67
2019-01-18T20:36:00.100Z,11.67
2019-01-18T20:41:45.413Z,11.77
2019-01-18T20:47:52.974Z,10.87
2019-01-18T20:53:50.255Z,11.47
2019-01-18T20:59:57.801Z,11.53
2019-01-18T21:05:45.082Z,12.03
2019-01-18T21:11:04.258Z,11.60
2019-01-18T21:17:00.328Z,12.87
2019-01-18T21:22:49.631Z,11.83
2019-01-18T21:28:45.925Z,12.13
2019-01-18T21:34:41.653Z,11.80
2019-01-18T21:40:24.435Z,10.90
2019-01-18T21:45:57.009Z,11.80
2019-01-18T21:51:41.546Z,11.10
2019-01-18T21:57:49.203Z,12.03
2019-01-18T22:03:47.915Z,12.07
2019-01-18T22:09:47.528Z,12.20
2019-01-18T22:15:22.106Z,11.70
2019-01-18T22:21:32.157Z,12.13
2019-01-18T22:27:41.780Z,11.93
2019-01-18T22:33:15.504Z,12.80
2019-01-18T22:38:33.410Z,12.37
2019-01-18T22:44:57.978Z,11.97
2019-01-18T22:50:41.632Z,11.47
2019-01-18T22:56:03.743Z,12.23
2019-01-18T23:01:51.722Z,12.43
2019-01-18T23:07:39.502Z,12.07
2019-01-18T23:13:03.733Z,12.63
2019-01-18T23:18:21.369Z,11.77
2019-01-18T23:23:49.200Z,13.10
2019-01-18T23:29:45.535Z,12.70
2019-01-18T23:34:51.627Z,12.60
2019-01-18T23:40:37.408Z,11.63
2019-01-18T23:46:06.392Z,12.23
2019-01-18T23:52:00.071Z,12.43
2019-01-18T23:57:27.749Z,11.57
